createdAt,value
2023-04-08T00:02:16.228Z,86.47
2023-04-08T00:04:50.192Z,86.64
2023-04-08T00:07:17.223Z,86.45
2023-04-08T00:09:51.139Z,86.84
2023-04-08T00:12:18.350Z,86.31
2023-04-08T00:14:52.156Z,86.63
2023-04-08T00:17:26.226Z,86.58
2023-04-08T00:20:06.152Z,86.79
2023-04-08T00:22:46.114Z,86.80
2023-04-08T00:25:13.329Z,86.80
2023-04-08T00:27:47.306Z,87.46
2023-04-08T00:30:15.829Z,87.43
2023-04-08T00:32:43.127Z,87.05
2023-04-08T00:35:16.249Z,87.49
2023-04-08T00:37:43.428Z,87.39
2023-04-08T00:40:18.328Z,87.32
2023-04-08T00:42:52.126Z,87.78
2023-04-08T00:45:19.063Z,87.37
2023-04-08T00:47:53.276Z,87.66
2023-04-08T00:50:27.074Z,87.34
2023-04-08T00:53:00.091Z,87.49
2023-04-08T00:55:33.416Z,87.57
2023-04-08T00:58:07.116Z,87.82
2023-04-08T01:00:43.164Z,87.51
2023-04-08T01:03:19.008Z,87.41
2023-04-08T01:06:11.123Z,87.63
2023-04-08T01:08:41.385Z,87.45
2023-04-08T01:11:18.137Z,87.72
2023-04-08T01:13:46.959Z,87.77
2023-04-08T01:16:23.247Z,87.71
2023-04-08T01:18:59.150Z,87.98
2023-04-08T01:21:47.126Z,87.87
2023-04-08T01:24:30.288Z,87.79
2023-04-08T01:26:59.278Z,87.87
2023-04-08T01:29:33.118Z,88.19
2023-04-08T01:32:02.213Z,88.20
2023-04-08T01:34:37.190Z,88.55
2023-04-08T01:37:12.166Z,88.27
2023-04-08T01:39:40.135Z,88.00
2023-04-08T01:42:13.114Z,88.41
2023-04-08T01:44:48.120Z,88.46
2023-04-08T01:47:22.245Z,88.40
2023-04-08T01:49:50.744Z,88.10
2023-04-08T01:52:27.205Z,88.19
2023-04-08T01:55:00.214Z,88.28
2023-04-08T01:57:34.103Z,87.82
2023-04-08T02:00:12.159Z,88.10
2023-04-08T02:02:42.048Z,87.89
2023-04-08T02:05:16.374Z,87.92
2023-04-08T02:07:43.482Z,87.81
2023-04-08T02:10:17.315Z,87.09
2023-04-08T02:12:52.229Z,87.41
2023-04-08T02:15:25.123Z,87.44
2023-04-08T02:17:56.579Z,87.55
2023-04-08T02:20:44.203Z,87.67
2023-04-08T02:23:27.333Z,87.31
2023-04-08T02:26:03.269Z,87.04
2023-04-08T02:28:38.124Z,87.40
2023-04-08T02:31:15.246Z,87.55
2023-04-08T02:33:43.688Z,87.51
2023-04-08T02:36:19.112Z,87.42
2023-04-08T02:38:50.622Z,87.67
2023-04-08T02:41:24.184Z,87.67
2023-04-08T02:44:02.211Z,87.42
2023-04-08T02:46:29.020Z,87.47
2023-04-08T02:49:02.118Z,87.98
2023-04-08T02:51:35.975Z,87.89
2023-04-08T02:54:02.971Z,87.49
2023-04-08T02:56:36.165Z,87.46
2023-04-08T02:59:09.150Z,87.05
2023-04-08T03:01:36.347Z,87.56
2023-04-08T03:04:10.211Z,87.71
2023-04-08T03:06:44.149Z,87.78
2023-04-08T03:09:17.117Z,87.49
2023-04-08T03:11:45.188Z,87.34
2023-04-08T03:14:19.114Z,87.40
2023-04-08T03:16:46.361Z,87.02
2023-04-08T03:19:20.256Z,87.18
2023-04-08T03:21:53.404Z,86.98
2023-04-08T03:24:27.143Z,86.90
2023-04-08T03:26:54.009Z,86.83
2023-04-08T03:29:27.201Z,86.88
2023-04-08T03:32:00.297Z,86.76
2023-04-08T03:34:27.144Z,86.88
2023-04-08T03:37:00.167Z,87.07
2023-04-08T03:39:27.025Z,86.97
2023-04-08T03:42:00.247Z,87.09
2023-04-08T03:44:34.196Z,86.86
2023-04-08T03:47:07.177Z,86.83
2023-04-08T03:49:34.058Z,86.95
2023-04-08T03:52:07.185Z,87.06
2023-04-08T03:54:33.941Z,86.78
2023-04-08T03:57:07.169Z,86.99
2023-04-08T03:59:34.393Z,87.15
2023-04-08T04:02:08.340Z,87.30
2023-04-08T04:04:43.336Z,87.33
2023-04-08T04:07:16.529Z,87.27
2023-04-08T04:09:43.550Z,87.71
2023-04-08T04:12:17.226Z,87.55
2023-04-08T04:14:44.102Z,87.37
2023-04-08T04:17:17.203Z,87.80
2023-04-08T04:19:50.199Z,87.68
2023-04-08T04:22:23.309Z,87.72
2023-04-08T04:24:57.173Z,87.95
2023-04-08T04:27:23.939Z,87.66
2023-04-08T04:29:57.218Z,87.82
2023-04-08T04:32:24.090Z,87.82
2023-04-08T04:34:57.282Z,87.77
2023-04-08T04:37:30.266Z,87.88
2023-04-08T04:39:57.096Z,87.94
2023-04-08T04:42:30.190Z,87.83
2023-04-08T04:44:56.976Z,87.73
2023-04-08T04:47:30.159Z,87.71
2023-04-08T04:49:56.865Z,87.58
2023-04-08T04:52:30.193Z,87.92
2023-04-08T04:54:58.436Z,87.84
2023-04-08T04:57:32.263Z,88.07
2023-04-08T04:59:59.384Z,88.25
2023-04-08T05:02:33.421Z,88.15
2023-04-08T05:05:00.283Z,88.22
2023-04-08T05:07:33.400Z,88.10
2023-04-08T05:10:00.188Z,88.00
2023-04-08T05:12:34.238Z,88.01
2023-04-08T05:15:01.270Z,88.02
2023-04-08T05:17:28.111Z,87.93
2023-04-08T05:20:01.247Z,87.68
2023-04-08T05:22:49.226Z,87.88
2023-04-08T05:25:22.463Z,88.08
2023-04-08T05:27:49.266Z,88.23
2023-04-08T05:30:23.219Z,88.25
2023-04-08T05:32:50.018Z,87.76
2023-04-08T05:35:23.361Z,87.91
2023-04-08T05:37:50.180Z,87.81
2023-04-08T05:40:24.273Z,87.59
2023-04-08T05:42:57.588Z,87.72
2023-04-08T05:45:31.297Z,87.66
2023-04-08T05:47:58.162Z,87.26
2023-04-08T05:50:31.447Z,87.12
2023-04-08T05:52:58.470Z,86.95
2023-04-08T05:55:25.545Z,86.96
2023-04-08T05:57:59.321Z,86.75
2023-04-08T06:00:33.231Z,87.02
2023-04-08T06:03:07.552Z,87.25
2023-04-08T06:05:34.368Z,87.30
2023-04-08T06:08:07.377Z,87.56
2023-04-08T06:10:40.451Z,87.96
2023-04-08T06:13:14.461Z,87.57
2023-04-08T06:15:41.448Z,87.61
2023-04-08T06:18:15.256Z,87.60
2023-04-08T06:20:42.194Z,87.50
2023-04-08T06:23:22.269Z,87.19
2023-04-08T06:25:49.082Z,87.38
2023-04-08T06:28:22.479Z,87.33
2023-04-08T06:30:56.274Z,87.45
2023-04-08T06:33:23.429Z,87.45
2023-04-08T06:35:57.263Z,87.44
2023-04-08T06:38:24.097Z,87.90
2023-04-08T06:40:57.298Z,87.74
2023-04-08T06:43:30.165Z,88.23
2023-04-08T06:45:58.183Z,88.20
2023-04-08T06:48:35.422Z,88.20
2023-04-08T06:51:09.250Z,87.67
2023-04-08T06:53:36.312Z,87.63
2023-04-08T06:56:09.407Z,87.68
2023-04-08T06:58:36.369Z,87.66
2023-04-08T07:01:10.709Z,87.78
2023-04-08T07:03:37.781Z,88.21
2023-04-08T07:06:11.377Z,87.53
2023-04-08T07:08:45.321Z,87.55
2023-04-08T07:11:19.312Z,87.10
2023-04-08T07:13:52.250Z,87.24
2023-04-08T07:16:19.055Z,86.96
2023-04-08T07:18:53.247Z,87.00
2023-04-08T07:21:26.628Z,86.61
2023-04-08T07:24:06.449Z,86.11
2023-04-08T07:26:33.385Z,85.57
2023-04-08T07:29:06.228Z,84.68
2023-04-08T07:31:33.109Z,84.72
2023-04-08T07:34:06.362Z,84.65
2023-04-08T07:36:39.455Z,84.92
2023-04-08T07:39:13.493Z,84.83
2023-04-08T07:41:47.493Z,84.54
2023-04-08T07:44:17.485Z,84.26
2023-04-08T07:46:53.255Z,84.42
2023-04-08T07:49:20.231Z,84.73
2023-04-08T07:51:54.566Z,84.77
2023-04-08T07:54:21.472Z,83.86
2023-04-08T07:56:55.376Z,84.08
2023-04-08T07:59:22.327Z,84.57
2023-04-08T08:01:55.281Z,83.94
2023-04-08T08:04:22.502Z,84.02
2023-04-08T08:06:56.388Z,84.21
2023-04-08T08:09:23.408Z,83.81
2023-04-08T08:11:56.369Z,83.36
2023-04-08T08:14:23.276Z,82.83
2023-04-08T08:16:56.316Z,83.07
2023-04-08T08:19:30.407Z,82.19
2023-04-08T08:22:10.704Z,81.24
2023-04-08T08:24:50.365Z,80.19
2023-04-08T08:27:23.318Z,80.21
2023-04-08T08:29:57.462Z,81.18
2023-04-08T08:32:24.446Z,81.19
2023-04-08T08:34:58.262Z,80.81
2023-04-08T08:37:25.624Z,80.78
2023-04-08T08:39:59.348Z,80.89
2023-04-08T08:42:26.903Z,80.78
2023-04-08T08:45:01.298Z,79.98
2023-04-08T08:47:28.353Z,79.83
2023-04-08T08:50:02.310Z,79.47
2023-04-08T08:52:35.332Z,80.29
2023-04-08T08:55:10.130Z,79.42
2023-04-08T08:57:50.342Z,77.42
2023-04-08T09:00:25.336Z,77.09
2023-04-08T09:02:52.496Z,76.13
2023-04-08T09:05:26.377Z,76.99
2023-04-08T09:08:00.302Z,76.02
2023-04-08T09:10:29.497Z,75.66
2023-04-08T09:13:03.297Z,73.77
2023-04-08T09:15:30.041Z,72.71
2023-04-08T09:18:03.414Z,74.63
2023-04-08T09:20:30.197Z,74.30
2023-04-08T09:23:12.320Z,73.11
2023-04-08T09:25:39.190Z,71.65
2023-04-08T09:28:26.254Z,71.01
2023-04-08T09:30:53.309Z,72.16
2023-04-08T09:33:26.305Z,72.09
2023-04-08T09:36:00.348Z,73.19
2023-04-08T09:38:34.288Z,72.69
2023-04-08T09:41:07.524Z,72.58
2023-04-08T09:43:48.460Z,71.31
2023-04-08T09:46:23.381Z,68.14
2023-04-08T09:49:12.412Z,69.70
2023-04-08T09:51:50.696Z,69.21
2023-04-08T09:54:29.364Z,66.34
2023-04-08T09:57:01.936Z,67.83
2023-04-08T09:59:40.558Z,66.26
2023-04-08T10:02:12.309Z,68.09
2023-04-08T10:04:52.364Z,67.66
2023-04-08T10:07:26.368Z,68.49
2023-04-08T10:09:53.495Z,67.69
2023-04-08T10:12:27.397Z,68.44
2023-04-08T10:15:31.415Z,68.16
2023-04-08T10:18:07.124Z,68.08
2023-04-08T10:20:43.339Z,67.90
2023-04-08T10:23:25.301Z,67.52
2023-04-08T10:25:52.217Z,66.93
2023-04-08T10:28:29.385Z,65.36
2023-04-08T10:31:04.528Z,65.78
2023-04-08T10:33:41.686Z,66.55
2023-04-08T10:36:12.473Z,67.75
2023-04-08T10:38:40.026Z,67.12
2023-04-08T10:41:13.357Z,65.37
2023-04-08T10:43:46.394Z,66.30
2023-04-08T10:46:19.443Z,64.61
2023-04-08T10:49:06.345Z,65.84
2023-04-08T10:51:41.741Z,64.88
2023-04-08T10:54:16.394Z,62.62
2023-04-08T10:56:51.192Z,62.77
2023-04-08T10:59:35.417Z,64.69
2023-04-08T11:02:02.961Z,63.69
2023-04-08T11:04:36.512Z,63.42
2023-04-08T11:07:08.776Z,63.35
2023-04-08T11:09:42.466Z,62.92
2023-04-08T11:12:15.407Z,62.24
2023-04-08T11:14:50.389Z,62.39
2023-04-08T11:17:18.100Z,60.38
2023-04-08T11:19:53.426Z,62.05
2023-04-08T11:22:27.754Z,60.06
2023-04-08T11:25:02.647Z,60.74
2023-04-08T11:27:36.351Z,60.08
2023-04-08T11:30:04.499Z,60.63
2023-04-08T11:32:38.465Z,60.97
2023-04-08T11:35:06.692Z,62.91
2023-04-08T11:37:49.442Z,62.95
2023-04-08T11:40:22.342Z,63.60
2023-04-08T11:42:56.468Z,62.95
2023-04-08T11:45:30.367Z,63.56
2023-04-08T11:47:57.205Z,64.53
2023-04-08T11:50:32.327Z,64.19
2023-04-08T11:52:59.951Z,64.38
2023-04-08T11:55:34.551Z,64.49
2023-04-08T11:58:06.390Z,63.46
2023-04-08T12:00:44.792Z,63.78
2023-04-08T12:03:13.247Z,63.27
2023-04-08T12:05:46.485Z,63.36
2023-04-08T12:08:19.423Z,64.18
2023-04-08T12:10:53.426Z,62.74
2023-04-08T12:13:20.342Z,62.58
2023-04-08T12:15:54.479Z,63.21
2023-04-08T12:18:21.274Z,61.95
2023-04-08T12:20:54.476Z,61.81
2023-04-08T12:23:27.963Z,62.20
2023-04-08T12:26:01.448Z,60.78
2023-04-08T12:28:34.476Z,60.71
2023-04-08T12:31:01.506Z,62.60
2023-04-08T12:33:34.400Z,61.98
2023-04-08T12:36:01.806Z,63.61
2023-04-08T12:38:35.503Z,64.28
2023-04-08T12:41:02.362Z,64.19
2023-04-08T12:43:35.413Z,62.76
2023-04-08T12:46:03.408Z,63.29
2023-04-08T12:48:36.647Z,62.76
2023-04-08T12:51:03.458Z,63.55
2023-04-08T12:53:36.627Z,62.40
2023-04-08T12:56:03.738Z,62.40
2023-04-08T12:58:37.561Z,62.05
2023-04-08T13:01:04.708Z,62.88
2023-04-08T13:03:38.668Z,63.95
2023-04-08T13:06:05.810Z,64.08
2023-04-08T13:08:32.995Z,65.06
2023-04-08T13:11:06.516Z,65.15
2023-04-08T13:13:33.633Z,65.44
2023-04-08T13:16:07.738Z,65.65
2023-04-08T13:18:34.921Z,66.15
2023-04-08T13:21:08.530Z,67.00
2023-04-08T13:23:42.865Z,66.97
2023-04-08T13:26:16.621Z,67.33
2023-04-08T13:28:56.635Z,67.44
2023-04-08T13:31:34.584Z,67.27
2023-04-08T13:34:01.491Z,66.87
2023-04-08T13:36:38.607Z,66.57
2023-04-08T13:39:05.620Z,67.42
2023-04-08T13:41:39.631Z,66.44
2023-04-08T13:44:13.526Z,66.75
2023-04-08T13:46:47.556Z,67.34
2023-04-08T13:49:14.910Z,67.20
2023-04-08T13:51:51.553Z,66.68
2023-04-08T13:54:25.571Z,66.84
2023-04-08T13:56:52.522Z,67.17
2023-04-08T13:59:26.420Z,67.88
2023-04-08T14:01:54.602Z,67.60
2023-04-08T14:04:28.644Z,67.93
2023-04-08T14:06:57.923Z,66.91
2023-04-08T14:09:31.551Z,66.91
2023-04-08T14:12:27.573Z,67.23
2023-04-08T14:15:01.493Z,66.24
2023-04-08T14:17:28.635Z,66.31
2023-04-08T14:20:02.549Z,66.75
2023-04-08T14:22:49.540Z,67.30
2023-04-08T14:25:23.639Z,66.16
2023-04-08T14:27:57.953Z,66.08
2023-04-08T14:30:35.619Z,65.98
2023-04-08T14:33:09.593Z,66.53
2023-04-08T14:35:37.269Z,66.14
2023-04-08T14:38:10.561Z,66.46
2023-04-08T14:40:38.020Z,66.84
2023-04-08T14:43:11.763Z,66.29
2023-04-08T14:45:38.910Z,66.45
2023-04-08T14:48:12.619Z,66.63
2023-04-08T14:50:39.652Z,66.57
2023-04-08T14:53:06.942Z,67.34
2023-04-08T14:55:40.701Z,67.40
2023-04-08T14:58:14.557Z,67.74
2023-04-08T15:00:45.235Z,68.48
2023-04-08T15:03:19.709Z,69.44
2023-04-08T15:05:53.524Z,68.76
2023-04-08T15:08:20.626Z,69.26
2023-04-08T15:10:54.660Z,69.25
2023-04-08T15:13:25.063Z,69.71
2023-04-08T15:16:02.660Z,70.49
2023-04-08T15:18:32.384Z,70.52
2023-04-08T15:21:09.884Z,70.28
2023-04-08T15:23:46.420Z,70.30
2023-04-08T15:26:20.644Z,70.75
2023-04-08T15:28:48.965Z,71.11
2023-04-08T15:31:28.358Z,70.68
2023-04-08T15:34:01.721Z,71.18
2023-04-08T15:36:30.304Z,71.48
2023-04-08T15:39:03.648Z,71.79
2023-04-08T15:41:33.427Z,71.88
2023-04-08T15:44:06.723Z,71.97
2023-04-08T15:46:35.564Z,72.33
2023-04-08T15:49:10.667Z,72.46
2023-04-08T15:51:40.089Z,72.63
2023-04-08T15:54:13.638Z,72.68
2023-04-08T15:56:41.158Z,72.76
2023-04-08T15:59:21.550Z,72.22
2023-04-08T16:01:48.882Z,72.02
2023-04-08T16:04:23.820Z,72.71
2023-04-08T16:06:51.048Z,72.46
2023-04-08T16:09:31.295Z,72.60
2023-04-08T16:11:58.601Z,72.91
2023-04-08T16:14:32.580Z,73.05
2023-04-08T16:16:59.969Z,73.19
2023-04-08T16:19:34.538Z,73.33
2023-04-08T16:22:08.754Z,73.18
2023-04-08T16:24:45.200Z,73.04
2023-04-08T16:27:18.572Z,73.50
2023-04-08T16:29:46.386Z,73.92
2023-04-08T16:32:19.681Z,74.19
2023-04-08T16:34:47.176Z,73.70
2023-04-08T16:37:20.648Z,73.79
2023-04-08T16:39:48.137Z,74.17
2023-04-08T16:42:15.132Z,74.30
2023-04-08T16:44:49.575Z,74.50
2023-04-08T16:47:16.357Z,74.19
2023-04-08T16:49:49.633Z,74.83
2023-04-08T16:52:16.586Z,74.91
2023-04-08T16:54:52.609Z,75.48
2023-04-08T16:57:19.589Z,75.69
2023-04-08T16:59:53.594Z,75.13
2023-04-08T17:02:22.007Z,75.05
2023-04-08T17:05:03.978Z,75.34
2023-04-08T17:07:44.471Z,75.37
2023-04-08T17:10:27.118Z,75.43
2023-04-08T17:12:58.262Z,75.67
2023-04-08T17:15:39.958Z,75.79
2023-04-08T17:18:12.255Z,75.78
2023-04-08T17:20:51.603Z,75.75
2023-04-08T17:23:27.971Z,76.35
2023-04-08T17:26:05.566Z,76.32
2023-04-08T17:28:46.925Z,76.20
2023-04-08T17:31:25.253Z,76.19
2023-04-08T17:36:56.446Z,76.26
2023-04-08T17:39:26.122Z,76.80
2023-04-08T17:54:43.673Z,77.08
2023-04-08T17:57:11.280Z,77.42
2023-04-08T17:59:48.182Z,77.51
2023-04-08T18:02:21.966Z,77.76
2023-04-08T18:04:55.610Z,78.23
2023-04-08T18:07:22.718Z,78.16
2023-04-08T18:09:56.725Z,77.69
2023-04-08T18:12:23.875Z,77.96
2023-04-08T18:14:58.033Z,78.05
2023-04-08T18:17:34.912Z,77.99
2023-04-08T18:20:08.820Z,77.85
2023-04-08T18:22:51.939Z,78.02
2023-04-08T18:25:31.670Z,78.27
2023-04-08T18:27:59.641Z,78.42
2023-04-08T18:30:33.756Z,78.29
2023-04-08T18:33:02.262Z,78.16
2023-04-08T18:35:35.611Z,77.92
2023-04-08T18:38:02.810Z,78.35
2023-04-08T18:40:39.202Z,78.67
2023-04-08T18:43:06.364Z,78.46
2023-04-08T18:45:45.016Z,78.74
2023-04-08T18:48:19.677Z,78.86
2023-04-08T18:50:53.664Z,79.09
2023-04-08T18:53:20.609Z,78.98
2023-04-08T18:55:57.693Z,78.90
2023-04-08T18:58:25.358Z,79.00
2023-04-08T19:00:58.775Z,79.10
2023-04-08T19:03:33.801Z,79.18
2023-04-08T19:06:05.484Z,79.28
2023-04-08T19:08:38.749Z,79.76
2023-04-08T19:11:06.037Z,79.52
2023-04-08T19:13:39.725Z,79.66
2023-04-08T19:16:13.686Z,79.66
2023-04-08T19:18:46.606Z,79.73
2023-04-08T19:21:13.486Z,79.36
2023-04-08T19:24:00.577Z,79.26
2023-04-08T19:26:33.869Z,79.63
2023-04-08T19:29:07.653Z,79.90
2023-04-08T19:31:34.886Z,80.35
2023-04-08T19:34:08.688Z,79.97
2023-04-08T19:36:41.777Z,79.79
2023-04-08T19:39:08.690Z,79.92
2023-04-08T19:41:41.740Z,80.36
2023-04-08T19:44:08.653Z,80.44
2023-04-08T19:46:41.820Z,80.15
2023-04-08T19:49:08.631Z,80.16
2023-04-08T19:51:42.645Z,80.52
2023-04-08T19:54:15.620Z,80.27
2023-04-08T19:56:48.713Z,80.02
2023-04-08T19:59:16.931Z,80.26
2023-04-08T20:01:50.765Z,80.69
2023-04-08T20:04:17.916Z,80.49
2023-04-08T20:06:51.630Z,80.86
2023-04-08T20:09:18.635Z,80.83
2023-04-08T20:11:52.615Z,80.81
2023-04-08T20:14:19.569Z,81.06
2023-04-08T20:16:52.578Z,80.89
2023-04-08T20:19:32.719Z,80.69
2023-04-08T20:21:59.645Z,80.71
2023-04-08T20:24:32.743Z,81.05
2023-04-08T20:27:05.906Z,81.04
2023-04-08T20:29:39.699Z,81.10
2023-04-08T20:32:06.764Z,80.92
2023-04-08T20:34:39.649Z,81.18
2023-04-08T20:37:07.254Z,80.68
2023-04-08T20:39:40.691Z,80.89
2023-04-08T20:42:09.622Z,80.85
2023-04-08T20:44:43.984Z,81.00
2023-04-08T20:47:17.655Z,80.81
2023-04-08T20:49:50.704Z,80.88
2023-04-08T20:52:17.627Z,80.98
2023-04-08T20:54:50.714Z,80.98
2023-04-08T20:57:24.744Z,81.00
2023-04-08T20:59:51.639Z,81.01
2023-04-08T21:02:27.892Z,81.23
2023-04-08T21:04:54.864Z,80.86
2023-04-08T21:07:28.756Z,80.93
2023-04-08T21:09:55.535Z,81.13
2023-04-08T21:12:28.747Z,81.13
2023-04-08T21:15:01.702Z,81.46
2023-04-08T21:17:37.797Z,81.56
2023-04-08T21:20:05.629Z,81.42
2023-04-08T21:22:39.800Z,81.57
2023-04-08T21:25:19.772Z,81.60
2023-04-08T21:27:53.612Z,81.66
2023-04-08T21:30:27.765Z,81.48
2023-04-08T21:32:55.105Z,81.14
2023-04-08T21:35:28.651Z,81.68
2023-04-08T21:37:55.702Z,81.66
2023-04-08T21:40:28.692Z,81.61
2023-04-08T21:42:55.738Z,81.74
2023-04-08T21:45:29.660Z,81.79
2023-04-08T21:47:56.618Z,81.42
2023-04-08T21:50:29.694Z,81.85
2023-04-08T21:52:56.675Z,81.59
2023-04-08T21:55:30.694Z,81.87
2023-04-08T21:57:57.600Z,81.85
2023-04-08T22:00:24.751Z,81.70
2023-04-08T22:02:57.981Z,81.88
2023-04-08T22:05:25.379Z,82.06
2023-04-08T22:07:58.723Z,81.98
2023-04-08T22:10:25.965Z,81.95
2023-04-08T22:12:59.758Z,82.14
2023-04-08T22:15:26.850Z,82.20
2023-04-08T22:18:00.747Z,82.00
2023-04-08T22:20:28.185Z,82.03
2023-04-08T22:23:01.725Z,82.08
2023-04-08T22:25:34.859Z,82.07
2023-04-08T22:28:08.666Z,82.13
2023-04-08T22:30:43.207Z,82.06
2023-04-08T22:33:11.317Z,82.24
2023-04-08T22:35:50.218Z,82.40
2023-04-08T22:38:16.986Z,82.12
2023-04-08T22:40:50.742Z,82.41
2023-04-08T22:43:17.854Z,82.42
2023-04-08T22:45:51.814Z,82.27
2023-04-08T22:48:18.880Z,82.43
2023-04-08T22:50:52.819Z,82.76
2023-04-08T22:53:26.727Z,82.68
2023-04-08T22:55:59.794Z,82.56
2023-04-08T22:58:26.844Z,82.81
2023-04-08T23:00:59.829Z,82.78
2023-04-08T23:03:33.858Z,82.59
2023-04-08T23:06:00.802Z,82.96
2023-04-08T23:08:33.787Z,82.62
2023-04-08T23:11:06.784Z,82.73
2023-04-08T23:13:40.864Z,82.63
2023-04-08T23:16:07.825Z,83.05
2023-04-08T23:18:40.906Z,82.90
2023-04-08T23:21:07.731Z,82.99
2023-04-08T23:23:40.818Z,82.98
2023-04-08T23:26:07.794Z,82.92
2023-04-08T23:28:40.864Z,82.95
2023-04-08T23:31:07.893Z,83.32
2023-04-08T23:33:40.787Z,83.20
2023-04-08T23:36:11.572Z,83.39
2023-04-08T23:38:39.036Z,83.32
2023-04-08T23:41:13.863Z,83.45
2023-04-08T23:43:41.085Z,83.71
2023-04-08T23:46:14.837Z,83.59
2023-04-08T23:48:42.112Z,83.40
2023-04-08T23:51:15.817Z,83.70
2023-04-08T23:53:42.764Z,83.93
2023-04-08T23:56:16.903Z,83.86
2023-04-08T23:58:44.164Z,83.97
